MLX weather

Malatya Erhaç Airport
Malatya, Malatya Province, Turkey

Public forecast

Using degrees Celsius for public forecast. Weather courtesy of forecast.io.

Current aviation weather report (METAR) for Malatya Erhaç Airport

Retrieved 2020/08/04 07:50 UTC (17 minutes ago):

LTAT 040750Z 08005KT 040V170 CAVOK 30/07 Q1008 NOSIG RMK RWY03 16005KT 090V220

Aviation forecast (TAF) for Malatya Erhaç Airport

Retrieved 2020/08/04 06:03 UTC (2 hours ago):

TAF LTAT 040440Z 0406/0506 VRB02KT CAVOK TEMPO 0417/0421 31015G25KT